Terminal Aerodrome Forecast
Issued by NWS

Home | Current Version | Previous Version | Text Only | Print | Product List | Glossary On
Versions: 1 2 3 4 5 6 7 8 9 10 11 12 13 14 15 16 17 18 19 20 21 22 23 24 25 26 27 28 29 30 31 32
599
FTUS43 KDVN 261726
TAFCID
TAF
KCID 261726Z 2618/2718 08010KT 3SM -RA BR SCT050 OVC090
     FM261900 07008KT 6SM BR SCT050 BKN090
     FM262100 VRB04KT P6SM SCT090
     FM270000 05004KT P6SM SCT090
     FM270800 VRB03KT 3SM BR FEW003 SCT100
     FM271400 13004KT 6SM BR BKN200=

USA.gov is the U.S. government's official web portal to all federal, state and local government web resources and services.